sensor_id;sensor_type;location;lat;lon;timestamp;temperature;humidity
49579;DHT22;35483;50.828;3.228;2023-05-29T00:02:18;15.20;81.00
49579;DHT22;35483;50.828;3.228;2023-05-29T00:04:44;15.10;81.40
49579;DHT22;35483;50.828;3.228;2023-05-29T00:07:09;15.10;81.70
49579;DHT22;35483;50.828;3.228;2023-05-29T00:09:35;15.00;81.40
49579;DHT22;35483;50.828;3.228;2023-05-29T00:12:01;15.00;81.80
49579;DHT22;35483;50.828;3.228;2023-05-29T00:14:28;15.00;81.40
49579;DHT22;35483;50.828;3.228;2023-05-29T00:16:53;15.00;82.90
49579;DHT22;35483;50.828;3.228;2023-05-29T00:19:19;15.00;82.40
49579;DHT22;35483;50.828;3.228;2023-05-29T00:21:45;15.00;81.40
49579;DHT22;35483;50.828;3.228;2023-05-29T00:24:16;14.90;82.10
49579;DHT22;35483;50.828;3.228;2023-05-29T00:26:42;14.90;81.70
49579;DHT22;35483;50.828;3.228;2023-05-29T00:29:08;14.90;83.40
49579;DHT22;35483;50.828;3.228;2023-05-29T00:31:35;14.90;81.30
49579;DHT22;35483;50.828;3.228;2023-05-29T00:34:03;14.90;82.10
49579;DHT22;35483;50.828;3.228;2023-05-29T00:36:30;14.80;82.20
49579;DHT22;35483;50.828;3.228;2023-05-29T00:38:57;14.80;84.00
49579;DHT22;35483;50.828;3.228;2023-05-29T00:41:22;14.80;82.50
49579;DHT22;35483;50.828;3.228;2023-05-29T00:43:48;14.80;81.80
49579;DHT22;35483;50.828;3.228;2023-05-29T00:46:16;14.70;82.10
49579;DHT22;35483;50.828;3.228;2023-05-29T00:48:42;14.70;83.00
49579;DHT22;35483;50.828;3.228;2023-05-29T00:51:10;14.60;83.10
49579;DHT22;35483;50.828;3.228;2023-05-29T00:53:39;14.60;82.00
49579;DHT22;35483;50.828;3.228;2023-05-29T00:56:06;14.60;85.20
49579;DHT22;35483;50.828;3.228;2023-05-29T00:58:33;14.60;82.30
49579;DHT22;35483;50.828;3.228;2023-05-29T01:00:59;14.60;83.10
49579;DHT22;35483;50.828;3.228;2023-05-29T01:03:25;14.50;82.60
49579;DHT22;35483;50.828;3.228;2023-05-29T01:05:50;14.50;81.90
49579;DHT22;35483;50.828;3.228;2023-05-29T01:08:18;14.50;82.90
49579;DHT22;35483;50.828;3.228;2023-05-29T01:10:45;14.40;82.10
49579;DHT22;35483;50.828;3.228;2023-05-29T01:13:23;14.50;82.60
49579;DHT22;35483;50.828;3.228;2023-05-29T01:16:01;14.40;82.70
49579;DHT22;35483;50.828;3.228;2023-05-29T01:18:41;14.40;82.40
49579;DHT22;35483;50.828;3.228;2023-05-29T01:24:26;14.30;84.00
49579;DHT22;35483;50.828;3.228;2023-05-29T01:27:00;14.20;87.40
49579;DHT22;35483;50.828;3.228;2023-05-29T01:29:29;14.30;82.50
49579;DHT22;35483;50.828;3.228;2023-05-29T01:31:58;14.30;81.90
49579;DHT22;35483;50.828;3.228;2023-05-29T01:34:24;14.20;82.40
49579;DHT22;35483;50.828;3.228;2023-05-29T01:36:50;14.20;82.50
49579;DHT22;35483;50.828;3.228;2023-05-29T01:39:16;14.00;83.80
49579;DHT22;35483;50.828;3.228;2023-05-29T01:41:43;14.00;83.90
49579;DHT22;35483;50.828;3.228;2023-05-29T01:44:10;14.00;84.00
49579;DHT22;35483;50.828;3.228;2023-05-29T01:46:42;14.00;81.90
49579;DHT22;35483;50.828;3.228;2023-05-29T01:49:09;14.00;82.20
49579;DHT22;35483;50.828;3.228;2023-05-29T01:51:37;14.00;82.10
49579;DHT22;35483;50.828;3.228;2023-05-29T01:54:03;14.00;82.40
49579;DHT22;35483;50.828;3.228;2023-05-29T01:56:31;14.00;81.70
49579;DHT22;35483;50.828;3.228;2023-05-29T01:58:57;14.00;81.60
49579;DHT22;35483;50.828;3.228;2023-05-29T02:01:23;14.00;81.60
49579;DHT22;35483;50.828;3.228;2023-05-29T02:03:49;13.90;81.60
49579;DHT22;35483;50.828;3.228;2023-05-29T02:06:16;13.80;82.60
49579;DHT22;35483;50.828;3.228;2023-05-29T02:08:42;13.80;82.70
49579;DHT22;35483;50.828;3.228;2023-05-29T02:11:08;13.80;81.70
49579;DHT22;35483;50.828;3.228;2023-05-29T02:13:34;13.80;81.80
49579;DHT22;35483;50.828;3.228;2023-05-29T02:16:01;13.70;81.90
49579;DHT22;35483;50.828;3.228;2023-05-29T02:18:26;13.70;81.70
49579;DHT22;35483;50.828;3.228;2023-05-29T02:20:52;13.70;81.60
49579;DHT22;35483;50.828;3.228;2023-05-29T02:23:18;13.70;81.60
49579;DHT22;35483;50.828;3.228;2023-05-29T02:25:45;13.70;81.80
49579;DHT22;35483;50.828;3.228;2023-05-29T02:28:11;13.70;82.30
49579;DHT22;35483;50.828;3.228;2023-05-29T02:30:37;13.70;81.70
49579;DHT22;35483;50.828;3.228;2023-05-29T02:33:03;13.70;81.50
49579;DHT22;35483;50.828;3.228;2023-05-29T02:35:29;13.60;82.10
49579;DHT22;35483;50.828;3.228;2023-05-29T02:37:55;13.70;81.70
49579;DHT22;35483;50.828;3.228;2023-05-29T02:40:21;13.60;81.50
49579;DHT22;35483;50.828;3.228;2023-05-29T02:42:47;13.60;81.90
49579;DHT22;35483;50.828;3.228;2023-05-29T02:45:13;13.50;82.60
49579;DHT22;35483;50.828;3.228;2023-05-29T02:47:39;13.50;83.10
49579;DHT22;35483;50.828;3.228;2023-05-29T02:50:05;13.50;82.40
49579;DHT22;35483;50.828;3.228;2023-05-29T02:52:35;13.50;81.50
49579;DHT22;35483;50.828;3.228;2023-05-29T02:55:03;13.50;81.70
49579;DHT22;35483;50.828;3.228;2023-05-29T02:57:29;13.50;81.70
49579;DHT22;35483;50.828;3.228;2023-05-29T02:59:56;13.50;81.50
49579;DHT22;35483;50.828;3.228;2023-05-29T03:02:21;13.40;81.50
49579;DHT22;35483;50.828;3.228;2023-05-29T03:04:47;13.40;81.40
49579;DHT22;35483;50.828;3.228;2023-05-29T03:07:16;13.40;81.70
49579;DHT22;35483;50.828;3.228;2023-05-29T03:09:42;13.40;81.50
49579;DHT22;35483;50.828;3.228;2023-05-29T03:12:08;13.30;81.50
49579;DHT22;35483;50.828;3.228;2023-05-29T03:14:33;13.30;83.50
49579;DHT22;35483;50.828;3.228;2023-05-29T03:17:07;13.30;81.90
49579;DHT22;35483;50.828;3.228;2023-05-29T03:19:36;13.30;82.30
49579;DHT22;35483;50.828;3.228;2023-05-29T03:22:04;13.20;82.00
49579;DHT22;35483;50.828;3.228;2023-05-29T03:24:29;13.20;82.10
49579;DHT22;35483;50.828;3.228;2023-05-29T03:26:55;13.10;82.90
49579;DHT22;35483;50.828;3.228;2023-05-29T03:29:21;13.10;83.10
49579;DHT22;35483;50.828;3.228;2023-05-29T03:31:47;13.20;81.80
49579;DHT22;35483;50.828;3.228;2023-05-29T03:34:13;13.10;82.10
49579;DHT22;35483;50.828;3.228;2023-05-29T03:36:39;13.10;82.40
49579;DHT22;35483;50.828;3.228;2023-05-29T03:39:05;13.10;81.70
49579;DHT22;35483;50.828;3.228;2023-05-29T03:41:31;13.10;81.80
49579;DHT22;35483;50.828;3.228;2023-05-29T03:43:57;13.10;81.90
49579;DHT22;35483;50.828;3.228;2023-05-29T03:46:23;13.10;82.10
49579;DHT22;35483;50.828;3.228;2023-05-29T03:48:50;13.10;81.70
49579;DHT22;35483;50.828;3.228;2023-05-29T03:51:15;13.00;82.50
49579;DHT22;35483;50.828;3.228;2023-05-29T03:53:41;13.00;81.90
49579;DHT22;35483;50.828;3.228;2023-05-29T03:56:07;13.00;82.20
49579;DHT22;35483;50.828;3.228;2023-05-29T03:58:32;13.00;81.80
49579;DHT22;35483;50.828;3.228;2023-05-29T04:00:58;13.00;81.90
49579;DHT22;35483;50.828;3.228;2023-05-29T04:03:24;13.10;81.60
49579;DHT22;35483;50.828;3.228;2023-05-29T04:05:51;13.00;82.20
49579;DHT22;35483;50.828;3.228;2023-05-29T04:08:16;13.00;82.40
49579;DHT22;35483;50.828;3.228;2023-05-29T04:10:43;13.00;82.10
49579;DHT22;35483;50.828;3.228;2023-05-29T04:13:10;13.00;81.80
49579;DHT22;35483;50.828;3.228;2023-05-29T04:15:36;13.10;81.70
49579;DHT22;35483;50.828;3.228;2023-05-29T04:18:02;13.10;81.60
49579;DHT22;35483;50.828;3.228;2023-05-29T04:20:28;13.10;81.90
49579;DHT22;35483;50.828;3.228;2023-05-29T04:22:54;13.10;82.10
49579;DHT22;35483;50.828;3.228;2023-05-29T04:25:20;13.10;82.50
49579;DHT22;35483;50.828;3.228;2023-05-29T04:27:45;13.10;82.10
49579;DHT22;35483;50.828;3.228;2023-05-29T04:30:15;13.20;82.40
49579;DHT22;35483;50.828;3.228;2023-05-29T04:32:41;13.20;82.50
49579;DHT22;35483;50.828;3.228;2023-05-29T04:35:07;13.20;81.70
49579;DHT22;35483;50.828;3.228;2023-05-29T04:37:33;13.20;82.40
49579;DHT22;35483;50.828;3.228;2023-05-29T04:40:07;13.20;81.60
49579;DHT22;35483;50.828;3.228;2023-05-29T04:42:38;13.20;82.30
49579;DHT22;35483;50.828;3.228;2023-05-29T04:45:06;13.20;81.80
49579;DHT22;35483;50.828;3.228;2023-05-29T04:47:32;13.30;81.50
49579;DHT22;35483;50.828;3.228;2023-05-29T04:50:02;13.30;82.10
49579;DHT22;35483;50.828;3.228;2023-05-29T04:52:28;13.40;81.10
49579;DHT22;35483;50.828;3.228;2023-05-29T04:54:54;13.40;81.90
49579;DHT22;35483;50.828;3.228;2023-05-29T04:57:22;13.40;81.10
49579;DHT22;35483;50.828;3.228;2023-05-29T04:59:47;13.50;81.10
49579;DHT22;35483;50.828;3.228;2023-05-29T05:02:13;13.50;81.80
49579;DHT22;35483;50.828;3.228;2023-05-29T05:04:39;13.50;81.20
49579;DHT22;35483;50.828;3.228;2023-05-29T05:07:05;13.50;81.10
49579;DHT22;35483;50.828;3.228;2023-05-29T05:09:32;13.60;81.30
49579;DHT22;35483;50.828;3.228;2023-05-29T05:11:58;13.60;80.80
49579;DHT22;35483;50.828;3.228;2023-05-29T05:14:24;13.60;80.60
49579;DHT22;35483;50.828;3.228;2023-05-29T05:16:50;13.70;80.60
49579;DHT22;35483;50.828;3.228;2023-05-29T05:19:16;13.70;80.70
49579;DHT22;35483;50.828;3.228;2023-05-29T05:21:42;13.70;80.40
49579;DHT22;35483;50.828;3.228;2023-05-29T05:24:07;13.70;80.70
49579;DHT22;35483;50.828;3.228;2023-05-29T05:26:33;13.80;80.60
49579;DHT22;35483;50.828;3.228;2023-05-29T05:28:59;13.80;80.00
49579;DHT22;35483;50.828;3.228;2023-05-29T05:31:25;13.90;79.90
49579;DHT22;35483;50.828;3.228;2023-05-29T05:33:51;13.90;80.00
49579;DHT22;35483;50.828;3.228;2023-05-29T05:36:17;14.00;79.80
49579;DHT22;35483;50.828;3.228;2023-05-29T05:38:44;14.20;79.90
49579;DHT22;35483;50.828;3.228;2023-05-29T05:41:09;15.40;77.80
49579;DHT22;35483;50.828;3.228;2023-05-29T05:43:35;16.30;76.00
49579;DHT22;35483;50.828;3.228;2023-05-29T05:46:01;17.50;73.40
49579;DHT22;35483;50.828;3.228;2023-05-29T05:48:27;18.60;71.40
49579;DHT22;35483;50.828;3.228;2023-05-29T05:50:52;19.70;69.70
49579;DHT22;35483;50.828;3.228;2023-05-29T05:53:18;20.60;68.20
49579;DHT22;35483;50.828;3.228;2023-05-29T05:55:44;21.10;67.20
49579;DHT22;35483;50.828;3.228;2023-05-29T05:58:10;21.60;66.40
49579;DHT22;35483;50.828;3.228;2023-05-29T06:00:36;22.10;65.80
49579;DHT22;35483;50.828;3.228;2023-05-29T06:03:01;22.00;65.40
49579;DHT22;35483;50.828;3.228;2023-05-29T06:05:29;22.20;65.30
49579;DHT22;35483;50.828;3.228;2023-05-29T06:07:55;22.60;64.30
49579;DHT22;35483;50.828;3.228;2023-05-29T06:10:21;22.30;64.50
49579;DHT22;35483;50.828;3.228;2023-05-29T06:12:47;20.80;66.50
49579;DHT22;35483;50.828;3.228;2023-05-29T06:15:13;19.20;69.60
49579;DHT22;35483;50.828;3.228;2023-05-29T06:17:38;17.80;72.50
49579;DHT22;35483;50.828;3.228;2023-05-29T06:20:05;17.10;74.30
49579;DHT22;35483;50.828;3.228;2023-05-29T06:22:36;16.60;75.20
49579;DHT22;35483;50.828;3.228;2023-05-29T06:25:01;16.20;75.90
49579;DHT22;35483;50.828;3.228;2023-05-29T06:27:27;15.90;76.40
49579;DHT22;35483;50.828;3.228;2023-05-29T06:29:53;15.80;76.80
49579;DHT22;35483;50.828;3.228;2023-05-29T06:32:18;15.70;77.00
49579;DHT22;35483;50.828;3.228;2023-05-29T06:34:44;15.50;77.10
49579;DHT22;35483;50.828;3.228;2023-05-29T06:37:10;15.50;77.20
49579;DHT22;35483;50.828;3.228;2023-05-29T06:39:36;15.50;77.30
49579;DHT22;35483;50.828;3.228;2023-05-29T06:42:02;15.40;77.50
49579;DHT22;35483;50.828;3.228;2023-05-29T06:44:28;15.40;77.60
49579;DHT22;35483;50.828;3.228;2023-05-29T06:46:53;15.40;77.60
49579;DHT22;35483;50.828;3.228;2023-05-29T06:49:19;15.40;77.70
49579;DHT22;35483;50.828;3.228;2023-05-29T06:51:45;15.30;77.50
49579;DHT22;35483;50.828;3.228;2023-05-29T06:54:11;15.30;77.60
49579;DHT22;35483;50.828;3.228;2023-05-29T06:56:37;15.30;78.20
49579;DHT22;35483;50.828;3.228;2023-05-29T06:59:02;15.40;77.60
49579;DHT22;35483;50.828;3.228;2023-05-29T07:01:28;15.40;77.50
49579;DHT22;35483;50.828;3.228;2023-05-29T07:03:54;15.40;77.50
49579;DHT22;35483;50.828;3.228;2023-05-29T07:06:20;15.40;77.60
49579;DHT22;35483;50.828;3.228;2023-05-29T07:08:46;15.40;77.60
49579;DHT22;35483;50.828;3.228;2023-05-29T07:11:12;15.40;77.70
49579;DHT22;35483;50.828;3.228;2023-05-29T07:13:37;15.50;77.60
49579;DHT22;35483;50.828;3.228;2023-05-29T07:16:03;15.50;77.90
49579;DHT22;35483;50.828;3.228;2023-05-29T07:18:29;15.50;77.60
49579;DHT22;35483;50.828;3.228;2023-05-29T07:21:00;15.50;77.90
49579;DHT22;35483;50.828;3.228;2023-05-29T07:23:25;15.40;78.10
49579;DHT22;35483;50.828;3.228;2023-05-29T07:25:51;15.50;78.00
49579;DHT22;35483;50.828;3.228;2023-05-29T07:28:17;15.50;78.10
49579;DHT22;35483;50.828;3.228;2023-05-29T07:30:42;15.50;78.00
49579;DHT22;35483;50.828;3.228;2023-05-29T07:33:08;15.60;78.00
49579;DHT22;35483;50.828;3.228;2023-05-29T07:35:34;15.70;78.00
49579;DHT22;35483;50.828;3.228;2023-05-29T07:38:00;15.80;77.90
49579;DHT22;35483;50.828;3.228;2023-05-29T07:40:26;15.90;78.00
49579;DHT22;35483;50.828;3.228;2023-05-29T07:42:52;15.90;77.70
49579;DHT22;35483;50.828;3.228;2023-05-29T07:45:18;15.90;77.70
49579;DHT22;35483;50.828;3.228;2023-05-29T07:47:44;15.90;77.90
49579;DHT22;35483;50.828;3.228;2023-05-29T07:50:10;15.90;77.80
49579;DHT22;35483;50.828;3.228;2023-05-29T07:52:36;15.90;77.80
49579;DHT22;35483;50.828;3.228;2023-05-29T07:55:02;15.90;77.80
49579;DHT22;35483;50.828;3.228;2023-05-29T07:57:29;15.80;77.90
49579;DHT22;35483;50.828;3.228;2023-05-29T07:59:56;15.90;77.90
49579;DHT22;35483;50.828;3.228;2023-05-29T08:02:22;16.00;77.90
49579;DHT22;35483;50.828;3.228;2023-05-29T08:04:47;16.00;77.90
49579;DHT22;35483;50.828;3.228;2023-05-29T08:07:13;16.10;77.60
49579;DHT22;35483;50.828;3.228;2023-05-29T08:09:39;16.20;77.60
49579;DHT22;35483;50.828;3.228;2023-05-29T08:12:05;16.20;77.60
49579;DHT22;35483;50.828;3.228;2023-05-29T08:14:32;16.20;77.60
49579;DHT22;35483;50.828;3.228;2023-05-29T08:16:57;16.30;77.60
49579;DHT22;35483;50.828;3.228;2023-05-29T08:19:24;16.30;77.50
49579;DHT22;35483;50.828;3.228;2023-05-29T08:21:50;16.30;77.70
49579;DHT22;35483;50.828;3.228;2023-05-29T08:24:17;16.40;77.50
49579;DHT22;35483;50.828;3.228;2023-05-29T08:26:43;16.40;77.70
49579;DHT22;35483;50.828;3.228;2023-05-29T08:29:09;16.50;77.70
49579;DHT22;35483;50.828;3.228;2023-05-29T08:31:35;16.60;77.50
49579;DHT22;35483;50.828;3.228;2023-05-29T08:34:01;16.60;77.40
49579;DHT22;35483;50.828;3.228;2023-05-29T08:36:26;16.70;77.30
49579;DHT22;35483;50.828;3.228;2023-05-29T08:38:53;16.70;77.50
49579;DHT22;35483;50.828;3.228;2023-05-29T08:41:55;16.70;77.30
49579;DHT22;35483;50.828;3.228;2023-05-29T08:44:23;16.70;77.10
49579;DHT22;35483;50.828;3.228;2023-05-29T08:46:54;16.60;77.80
49579;DHT22;35483;50.828;3.228;2023-05-29T08:49:21;16.60;77.10
49579;DHT22;35483;50.828;3.228;2023-05-29T08:51:49;16.70;77.20
49579;DHT22;35483;50.828;3.228;2023-05-29T08:54:20;16.60;77.00
49579;DHT22;35483;50.828;3.228;2023-05-29T08:56:47;16.60;77.40
49579;DHT22;35483;50.828;3.228;2023-05-29T08:59:12;16.60;77.40
49579;DHT22;35483;50.828;3.228;2023-05-29T09:01:40;16.70;77.30
49579;DHT22;35483;50.828;3.228;2023-05-29T09:04:05;16.70;77.30
49579;DHT22;35483;50.828;3.228;2023-05-29T09:06:31;16.80;77.30
49579;DHT22;35483;50.828;3.228;2023-05-29T09:08:58;16.90;77.30
49579;DHT22;35483;50.828;3.228;2023-05-29T09:11:24;16.90;76.60
49579;DHT22;35483;50.828;3.228;2023-05-29T09:13:51;16.90;77.20
49579;DHT22;35483;50.828;3.228;2023-05-29T09:16:18;17.00;77.10
49579;DHT22;35483;50.828;3.228;2023-05-29T09:18:43;17.00;77.20
49579;DHT22;35483;50.828;3.228;2023-05-29T09:21:26;17.10;77.20
49579;DHT22;35483;50.828;3.228;2023-05-29T09:23:54;17.20;74.70
49579;DHT22;35483;50.828;3.228;2023-05-29T09:26:21;17.20;76.60
49579;DHT22;35483;50.828;3.228;2023-05-29T09:28:49;17.30;77.10
49579;DHT22;35483;50.828;3.228;2023-05-29T09:31:15;17.40;77.10
49579;DHT22;35483;50.828;3.228;2023-05-29T09:33:47;17.50;77.20
49579;DHT22;35483;50.828;3.228;2023-05-29T09:36:23;17.50;77.00
49579;DHT22;35483;50.828;3.228;2023-05-29T09:38:50;17.50;76.90
49579;DHT22;35483;50.828;3.228;2023-05-29T09:41:23;17.60;76.70
49579;DHT22;35483;50.828;3.228;2023-05-29T09:43:50;17.50;75.80
49579;DHT22;35483;50.828;3.228;2023-05-29T09:46:16;17.50;76.80
49579;DHT22;35483;50.828;3.228;2023-05-29T09:48:46;17.50;76.70
49579;DHT22;35483;50.828;3.228;2023-05-29T09:51:20;17.60;77.00
49579;DHT22;35483;50.828;3.228;2023-05-29T09:53:47;17.60;76.20
49579;DHT22;35483;50.828;3.228;2023-05-29T09:56:15;17.60;76.60
49579;DHT22;35483;50.828;3.228;2023-05-29T09:58:43;17.60;76.60
49579;DHT22;35483;50.828;3.228;2023-05-29T10:01:14;17.60;77.00
49579;DHT22;35483;50.828;3.228;2023-05-29T10:03:42;17.70;77.00
49579;DHT22;35483;50.828;3.228;2023-05-29T10:06:10;17.70;76.90
49579;DHT22;35483;50.828;3.228;2023-05-29T10:08:46;17.80;76.00
49579;DHT22;35483;50.828;3.228;2023-05-29T10:11:21;17.80;76.80
49579;DHT22;35483;50.828;3.228;2023-05-29T10:13:52;17.80;76.20
49579;DHT22;35483;50.828;3.228;2023-05-29T10:16:22;17.80;76.60
49579;DHT22;35483;50.828;3.228;2023-05-29T10:18:56;17.70;76.20
49579;DHT22;35483;50.828;3.228;2023-05-29T10:21:26;17.80;76.80
49579;DHT22;35483;50.828;3.228;2023-05-29T10:23:54;17.80;73.70
49579;DHT22;35483;50.828;3.228;2023-05-29T10:26:24;17.90;76.50
49579;DHT22;35483;50.828;3.228;2023-05-29T10:29:05;17.80;76.30
49579;DHT22;35483;50.828;3.228;2023-05-29T10:31:43;17.80;75.50
49579;DHT22;35483;50.828;3.228;2023-05-29T10:40:08;17.90;76.40
49579;DHT22;35483;50.828;3.228;2023-05-29T10:42:45;17.90;76.50
49579;DHT22;35483;50.828;3.228;2023-05-29T10:50:55;18.10;74.80
49579;DHT22;35483;50.828;3.228;2023-05-29T10:53:26;18.10;76.10
49579;DHT22;35483;50.828;3.228;2023-05-29T10:55:56;18.10;74.40
49579;DHT22;35483;50.828;3.228;2023-05-29T10:58:23;18.10;75.40
49579;DHT22;35483;50.828;3.228;2023-05-29T11:00:51;18.10;76.50
49579;DHT22;35483;50.828;3.228;2023-05-29T11:03:29;18.10;76.60
49579;DHT22;35483;50.828;3.228;2023-05-29T11:06:04;18.20;75.40
49579;DHT22;35483;50.828;3.228;2023-05-29T11:08:35;18.30;76.10
49579;DHT22;35483;50.828;3.228;2023-05-29T11:11:02;18.30;76.10
49579;DHT22;35483;50.828;3.228;2023-05-29T11:13:38;18.30;76.10
49579;DHT22;35483;50.828;3.228;2023-05-29T11:16:13;18.30;75.60
49579;DHT22;35483;50.828;3.228;2023-05-29T11:18:41;18.40;73.20
49579;DHT22;35483;50.828;3.228;2023-05-29T11:22:06;18.40;75.40
49579;DHT22;35483;50.828;3.228;2023-05-29T11:24:03;18.40;74.90
49579;DHT22;35483;50.828;3.228;2023-05-29T11:26:30;18.50;76.50
49579;DHT22;35483;50.828;3.228;2023-05-29T11:29:01;18.50;76.40
49579;DHT22;35483;50.828;3.228;2023-05-29T11:31:29;18.60;73.50
49579;DHT22;35483;50.828;3.228;2023-05-29T11:33:59;18.60;76.20
49579;DHT22;35483;50.828;3.228;2023-05-29T11:36:26;18.60;75.40
49579;DHT22;35483;50.828;3.228;2023-05-29T11:38:53;18.70;76.50
49579;DHT22;35483;50.828;3.228;2023-05-29T11:41:19;18.70;76.10
49579;DHT22;35483;50.828;3.228;2023-05-29T11:43:56;18.80;76.20
49579;DHT22;35483;50.828;3.228;2023-05-29T11:46:23;18.80;73.20
49579;DHT22;35483;50.828;3.228;2023-05-29T11:48:51;18.80;76.20
49579;DHT22;35483;50.828;3.228;2023-05-29T11:51:18;18.90;76.30
49579;DHT22;35483;50.828;3.228;2023-05-29T11:53:46;18.80;76.30
49579;DHT22;35483;50.828;3.228;2023-05-29T11:56:13;18.90;76.00
49579;DHT22;35483;50.828;3.228;2023-05-29T11:58:42;18.90;76.00
49579;DHT22;35483;50.828;3.228;2023-05-29T12:01:09;18.90;75.90
49579;DHT22;35483;50.828;3.228;2023-05-29T12:03:41;19.00;74.60
49579;DHT22;35483;50.828;3.228;2023-05-29T12:06:09;19.00;75.50
49579;DHT22;35483;50.828;3.228;2023-05-29T12:08:39;19.00;74.60
49579;DHT22;35483;50.828;3.228;2023-05-29T12:11:05;19.00;75.70
49579;DHT22;35483;50.828;3.228;2023-05-29T12:13:31;19.00;76.00
49579;DHT22;35483;50.828;3.228;2023-05-29T12:15:59;19.00;75.60
49579;DHT22;35483;50.828;3.228;2023-05-29T12:18:26;19.10;76.00
49579;DHT22;35483;50.828;3.228;2023-05-29T12:21:03;19.20;75.80
49579;DHT22;35483;50.828;3.228;2023-05-29T12:23:32;19.30;70.60
49579;DHT22;35483;50.828;3.228;2023-05-29T12:25:59;19.30;75.50
49579;DHT22;35483;50.828;3.228;2023-05-29T12:28:25;19.30;74.60
49579;DHT22;35483;50.828;3.228;2023-05-29T12:30:58;19.40;75.10
49579;DHT22;35483;50.828;3.228;2023-05-29T12:33:32;19.40;74.80
49579;DHT22;35483;50.828;3.228;2023-05-29T12:36:05;19.50;75.50
49579;DHT22;35483;50.828;3.228;2023-05-29T12:38:32;19.50;72.80
49579;DHT22;35483;50.828;3.228;2023-05-29T12:40:58;19.60;75.50
49579;DHT22;35483;50.828;3.228;2023-05-29T12:43:25;19.60;75.10
49579;DHT22;35483;50.828;3.228;2023-05-29T12:45:55;19.60;75.10
49579;DHT22;35483;50.828;3.228;2023-05-29T12:48:26;19.60;74.80
49579;DHT22;35483;50.828;3.228;2023-05-29T12:50:52;19.60;75.20
49579;DHT22;35483;50.828;3.228;2023-05-29T12:53:18;19.60;75.60
49579;DHT22;35483;50.828;3.228;2023-05-29T12:55:46;19.60;75.30
49579;DHT22;35483;50.828;3.228;2023-05-29T12:58:14;19.60;75.10
49579;DHT22;35483;50.828;3.228;2023-05-29T13:00:44;19.60;73.10
49579;DHT22;35483;50.828;3.228;2023-05-29T13:03:13;19.60;74.60
49579;DHT22;35483;50.828;3.228;2023-05-29T13:05:40;19.60;74.90
49579;DHT22;35483;50.828;3.228;2023-05-29T13:08:07;19.60;73.80
49579;DHT22;35483;50.828;3.228;2023-05-29T13:10:33;19.60;75.20
49579;DHT22;35483;50.828;3.228;2023-05-29T13:13:00;19.70;75.20
49579;DHT22;35483;50.828;3.228;2023-05-29T13:15:26;19.70;75.00
49579;DHT22;35483;50.828;3.228;2023-05-29T13:17:53;19.80;74.80
49579;DHT22;35483;50.828;3.228;2023-05-29T13:20:19;19.70;75.00
49579;DHT22;35483;50.828;3.228;2023-05-29T13:22:46;19.80;74.90
49579;DHT22;35483;50.828;3.228;2023-05-29T13:25:14;19.80;74.10
49579;DHT22;35483;50.828;3.228;2023-05-29T13:27:43;19.80;74.80
49579;DHT22;35483;50.828;3.228;2023-05-29T13:30:10;19.80;74.50
49579;DHT22;35483;50.828;3.228;2023-05-29T13:32:37;19.80;74.20
49579;DHT22;35483;50.828;3.228;2023-05-29T13:35:03;19.90;74.90
49579;DHT22;35483;50.828;3.228;2023-05-29T13:37:29;20.00;74.90
49579;DHT22;35483;50.828;3.228;2023-05-29T13:39:55;20.10;75.00
49579;DHT22;35483;50.828;3.228;2023-05-29T13:42:21;20.10;74.80
49579;DHT22;35483;50.828;3.228;2023-05-29T13:44:48;20.20;74.80
49579;DHT22;35483;50.828;3.228;2023-05-29T13:47:14;20.10;74.60
49579;DHT22;35483;50.828;3.228;2023-05-29T13:49:41;20.10;74.90
49579;DHT22;35483;50.828;3.228;2023-05-29T13:52:07;20.20;74.70
49579;DHT22;35483;50.828;3.228;2023-05-29T13:54:33;20.30;74.50
49579;DHT22;35483;50.828;3.228;2023-05-29T13:57:03;20.30;74.60
49579;DHT22;35483;50.828;3.228;2023-05-29T13:59:33;20.40;74.30
49579;DHT22;35483;50.828;3.228;2023-05-29T14:01:59;20.40;74.00
49579;DHT22;35483;50.828;3.228;2023-05-29T14:04:25;20.50;74.40
49579;DHT22;35483;50.828;3.228;2023-05-29T14:06:52;20.50;74.30
49579;DHT22;35483;50.828;3.228;2023-05-29T14:09:18;20.50;74.50
49579;DHT22;35483;50.828;3.228;2023-05-29T14:11:57;20.60;74.30
49579;DHT22;35483;50.828;3.228;2023-05-29T14:14:23;20.70;74.20
49579;DHT22;35483;50.828;3.228;2023-05-29T14:16:50;20.70;74.10
49579;DHT22;35483;50.828;3.228;2023-05-29T14:19:18;20.70;74.00
49579;DHT22;35483;50.828;3.228;2023-05-29T14:21:46;20.80;73.60
49579;DHT22;35483;50.828;3.228;2023-05-29T14:24:12;20.80;73.50
49579;DHT22;35483;50.828;3.228;2023-05-29T14:26:40;20.80;73.00
49579;DHT22;35483;50.828;3.228;2023-05-29T14:29:08;20.70;73.60
49579;DHT22;35483;50.828;3.228;2023-05-29T14:31:34;20.70;73.40
49579;DHT22;35483;50.828;3.228;2023-05-29T14:34:00;20.70;73.30
49579;DHT22;35483;50.828;3.228;2023-05-29T14:36:26;20.70;73.20
49579;DHT22;35483;50.828;3.228;2023-05-29T14:38:52;20.70;73.20
49579;DHT22;35483;50.828;3.228;2023-05-29T14:41:18;20.70;73.30
49579;DHT22;35483;50.828;3.228;2023-05-29T14:43:44;20.80;73.00
49579;DHT22;35483;50.828;3.228;2023-05-29T14:46:10;20.80;73.00
49579;DHT22;35483;50.828;3.228;2023-05-29T14:48:37;20.90;73.20
49579;DHT22;35483;50.828;3.228;2023-05-29T14:51:03;20.80;72.80
49579;DHT22;35483;50.828;3.228;2023-05-29T14:53:29;20.80;72.60
49579;DHT22;35483;50.828;3.228;2023-05-29T14:55:57;20.80;72.80
49579;DHT22;35483;50.828;3.228;2023-05-29T14:58:23;20.80;71.10
49579;DHT22;35483;50.828;3.228;2023-05-29T15:00:49;20.70;72.50
49579;DHT22;35483;50.828;3.228;2023-05-29T15:03:15;20.80;72.50
49579;DHT22;35483;50.828;3.228;2023-05-29T15:05:41;20.80;72.90
49579;DHT22;35483;50.828;3.228;2023-05-29T15:08:07;20.90;73.00
49579;DHT22;35483;50.828;3.228;2023-05-29T15:10:33;20.90;72.70
49579;DHT22;35483;50.828;3.228;2023-05-29T15:12:59;21.00;72.60
49579;DHT22;35483;50.828;3.228;2023-05-29T15:15:26;21.00;72.60
49579;DHT22;35483;50.828;3.228;2023-05-29T15:17:53;20.90;72.90
49579;DHT22;35483;50.828;3.228;2023-05-29T15:20:24;20.90;73.00
49579;DHT22;35483;50.828;3.228;2023-05-29T15:22:51;21.00;73.00
49579;DHT22;35483;50.828;3.228;2023-05-29T15:25:18;21.00;72.90
49579;DHT22;35483;50.828;3.228;2023-05-29T15:27:45;21.00;72.70
49579;DHT22;35483;50.828;3.228;2023-05-29T15:30:16;21.00;72.60
49579;DHT22;35483;50.828;3.228;2023-05-29T15:32:45;21.00;71.90
49579;DHT22;35483;50.828;3.228;2023-05-29T15:35:13;21.10;72.70
49579;DHT22;35483;50.828;3.228;2023-05-29T15:37:40;21.00;72.50
49579;DHT22;35483;50.828;3.228;2023-05-29T15:40:07;21.00;72.30
49579;DHT22;35483;50.828;3.228;2023-05-29T15:42:34;21.00;72.30
49579;DHT22;35483;50.828;3.228;2023-05-29T15:45:01;20.90;72.20
49579;DHT22;35483;50.828;3.228;2023-05-29T15:47:29;20.80;72.50